<?xml version="1.0" encoding="UTF-8" standalone="no" ?>
<gpx xmlns="http://www.topografix.com/GPX/1/1" xmlns:xsi="http://www.w3.org/2001/XMLSchema-instance" xsi:schemaLocation="http://www.topografix.com/GPX/1/1 http://www.topografix.com/GPX/1/1/gpx.xsd" version="1.1" creator="VisuGPX - https://www.visugpx.com">
  <metadata>
    <name>06-03-2022  Caunes- Rieussec-Citou -Castanviels</name>
  </metadata>
  <wpt lat="43.37291" lon="2.52356">
    <ele>527.94140625</ele>
    <name><![CDATA[Forêt]]></name>
    <type><![CDATA[user]]></type>
  </wpt>
  <wpt lat="43.37187" lon="2.52482">
    <ele>571.4609375</ele>
    <name><![CDATA[Sentier]]></name>
    <type><![CDATA[user]]></type>
  </wpt>
  <wpt lat="43.37042" lon="2.52415">
    <ele>620.89453125</ele>
    <name><![CDATA[Sentier1]]></name>
    <type><![CDATA[user]]></type>
  </wpt>
  <trk>
    <name><![CDATA[2021-01-26  Caunes- Rieussec-Citou -Castanviels]]></name>
    <trkseg>
      <trkpt lat="43.32656" lon="2.52546">
        <ele>187.4609375</ele>
        <time>2021-01-26T08:47:26Z</time>
      </trkpt>
      <trkpt lat="43.32635" lon="2.52546">
        <ele>187.171875</ele>
        <time>2021-01-26T08:50:19Z</time>
      </trkpt>
      <trkpt lat="43.32637" lon="2.52588">
        <ele>186.17578125</ele>
        <time>2021-01-26T08:50:37Z</time>
      </trkpt>
      <trkpt lat="43.32658" lon="2.52621">
        <ele>187.265625</ele>
        <time>2021-01-26T08:51:04Z</time>
      </trkpt>
      <trkpt lat="43.32706" lon="2.52713">
        <ele>193.0859375</ele>
        <time>2021-01-26T08:51:45Z</time>
      </trkpt>
      <trkpt lat="43.3278" lon="2.52731">
        <ele>199.12109375</ele>
        <time>2021-01-26T08:52:21Z</time>
      </trkpt>
      <trkpt lat="43.32834" lon="2.52733">
        <ele>203.0390625</ele>
        <time>2021-01-26T08:52:55Z</time>
      </trkpt>
      <trkpt lat="43.32886" lon="2.52744">
        <ele>209.2109375</ele>
        <time>2021-01-26T08:53:23Z</time>
      </trkpt>
      <trkpt lat="43.32924" lon="2.52727">
        <ele>214.9609375</ele>
        <time>2021-01-26T08:53:42Z</time>
      </trkpt>
      <trkpt lat="43.32958" lon="2.52702">
        <ele>220.859375</ele>
        <time>2021-01-26T08:54:05Z</time>
      </trkpt>
      <trkpt lat="43.32988" lon="2.52677">
        <ele>225.83984375</ele>
        <time>2021-01-26T08:54:29Z</time>
      </trkpt>
      <trkpt lat="43.33039" lon="2.52678">
        <ele>235.37890625</ele>
        <time>2021-01-26T08:55:00Z</time>
      </trkpt>
      <trkpt lat="43.33074" lon="2.52698">
        <ele>243.5</ele>
        <time>2021-01-26T08:55:23Z</time>
      </trkpt>
      <trkpt lat="43.33106" lon="2.52718">
        <ele>250.25390625</ele>
        <time>2021-01-26T08:55:47Z</time>
      </trkpt>
      <trkpt lat="43.3313" lon="2.52746">
        <ele>254.59765625</ele>
        <time>2021-01-26T08:56:08Z</time>
      </trkpt>
      <trkpt lat="43.33158" lon="2.52761">
        <ele>259.6953125</ele>
        <time>2021-01-26T08:56:25Z</time>
      </trkpt>
      <trkpt lat="43.33188" lon="2.52786">
        <ele>265.15234375</ele>
        <time>2021-01-26T08:56:43Z</time>
      </trkpt>
      <trkpt lat="43.33207" lon="2.52796">
        <ele>267.80859375</ele>
        <time>2021-01-26T08:57:06Z</time>
      </trkpt>
      <trkpt lat="43.33226" lon="2.52798">
        <ele>270.24609375</ele>
        <time>2021-01-26T08:58:35Z</time>
      </trkpt>
      <trkpt lat="43.33253" lon="2.5278">
        <ele>274.203125</ele>
        <time>2021-01-26T08:58:59Z</time>
      </trkpt>
      <trkpt lat="43.33279" lon="2.52769">
        <ele>277.8828125</ele>
        <time>2021-01-26T08:59:18Z</time>
      </trkpt>
      <trkpt lat="43.33319" lon="2.52742">
        <ele>278</ele>
        <time>2021-01-26T08:59:58Z</time>
      </trkpt>
      <trkpt lat="43.33353" lon="2.52718">
        <ele>276.1875</ele>
        <time>2021-01-26T09:00:19Z</time>
      </trkpt>
      <trkpt lat="43.33394" lon="2.52744">
        <ele>277.6328125</ele>
        <time>2021-01-26T09:00:37Z</time>
      </trkpt>
      <trkpt lat="43.33436" lon="2.52784">
        <ele>283.140625</ele>
        <time>2021-01-26T09:00:56Z</time>
      </trkpt>
      <trkpt lat="43.33471" lon="2.52838">
        <ele>292.01953125</ele>
        <time>2021-01-26T09:01:35Z</time>
      </trkpt>
      <trkpt lat="43.33518" lon="2.52867">
        <ele>299.5625</ele>
        <time>2021-01-26T09:02:11Z</time>
      </trkpt>
      <trkpt lat="43.33558" lon="2.52866">
        <ele>304.18359375</ele>
        <time>2021-01-26T09:02:58Z</time>
      </trkpt>
      <trkpt lat="43.33623" lon="2.52856">
        <ele>310.03515625</ele>
        <time>2021-01-26T09:03:42Z</time>
      </trkpt>
      <trkpt lat="43.33719" lon="2.5289">
        <ele>321.81640625</ele>
        <time>2021-01-26T09:04:29Z</time>
      </trkpt>
      <trkpt lat="43.33752" lon="2.52873">
        <ele>320.67578125</ele>
        <time>2021-01-26T09:05:09Z</time>
      </trkpt>
      <trkpt lat="43.33851" lon="2.52838">
        <ele>321.7890625</ele>
        <time>2021-01-26T09:05:51Z</time>
      </trkpt>
      <trkpt lat="43.33935" lon="2.52823">
        <ele>332.01953125</ele>
        <time>2021-01-26T09:06:26Z</time>
      </trkpt>
      <trkpt lat="43.33993" lon="2.52775">
        <ele>325.38671875</ele>
        <time>2021-01-26T09:06:56Z</time>
      </trkpt>
      <trkpt lat="43.34012" lon="2.5274">
        <ele>315.91015625</ele>
        <time>2021-01-26T09:07:16Z</time>
      </trkpt>
      <trkpt lat="43.34053" lon="2.52772">
        <ele>327.5390625</ele>
        <time>2021-01-26T09:07:52Z</time>
      </trkpt>
      <trkpt lat="43.34084" lon="2.52789">
        <ele>332.67578125</ele>
        <time>2021-01-26T09:08:11Z</time>
      </trkpt>
      <trkpt lat="43.34145" lon="2.52779">
        <ele>325.82421875</ele>
        <time>2021-01-26T09:08:44Z</time>
      </trkpt>
      <trkpt lat="43.34214" lon="2.52751">
        <ele>314.4296875</ele>
        <time>2021-01-26T09:09:15Z</time>
      </trkpt>
      <trkpt lat="43.34291" lon="2.52723">
        <ele>313.1171875</ele>
        <time>2021-01-26T09:09:43Z</time>
      </trkpt>
      <trkpt lat="43.34332" lon="2.52669">
        <ele>301.62109375</ele>
        <time>2021-01-26T09:10:07Z</time>
      </trkpt>
      <trkpt lat="43.34375" lon="2.52634">
        <ele>300.515625</ele>
        <time>2021-01-26T09:10:30Z</time>
      </trkpt>
      <trkpt lat="43.3442" lon="2.52582">
        <ele>294.7890625</ele>
        <time>2021-01-26T09:10:56Z</time>
      </trkpt>
      <trkpt lat="43.34445" lon="2.52565">
        <ele>294.3125</ele>
        <time>2021-01-26T09:11:32Z</time>
      </trkpt>
      <trkpt lat="43.34499" lon="2.52571">
        <ele>305.046875</ele>
        <time>2021-01-26T09:12:00Z</time>
      </trkpt>
      <trkpt lat="43.34554" lon="2.52582">
        <ele>315.90234375</ele>
        <time>2021-01-26T09:12:34Z</time>
      </trkpt>
      <trkpt lat="43.34604" lon="2.52608">
        <ele>330.296875</ele>
        <time>2021-01-26T09:13:16Z</time>
      </trkpt>
      <trkpt lat="43.34639" lon="2.52639">
        <ele>338.80859375</ele>
        <time>2021-01-26T09:13:52Z</time>
      </trkpt>
      <trkpt lat="43.34654" lon="2.527">
        <ele>359.2578125</ele>
        <time>2021-01-26T09:14:30Z</time>
      </trkpt>
      <trkpt lat="43.34701" lon="2.52756">
        <ele>369.65234375</ele>
        <time>2021-01-26T09:15:08Z</time>
      </trkpt>
      <trkpt lat="43.34816" lon="2.52795">
        <ele>359.7109375</ele>
        <time>2021-01-26T09:15:58Z</time>
      </trkpt>
      <trkpt lat="43.34837" lon="2.52822">
        <ele>368.17578125</ele>
        <time>2021-01-26T09:16:43Z</time>
      </trkpt>
      <trkpt lat="43.34879" lon="2.5284">
        <ele>370.2890625</ele>
        <time>2021-01-26T09:17:53Z</time>
      </trkpt>
      <trkpt lat="43.34896" lon="2.52846">
        <ele>370.56640625</ele>
        <time>2021-01-26T09:18:57Z</time>
      </trkpt>
      <trkpt lat="43.3492" lon="2.52885">
        <ele>384.9140625</ele>
        <time>2021-01-26T09:19:23Z</time>
      </trkpt>
      <trkpt lat="43.34962" lon="2.5291">
        <ele>385.6953125</ele>
        <time>2021-01-26T09:19:47Z</time>
      </trkpt>
      <trkpt lat="43.35004" lon="2.52918">
        <ele>375.83984375</ele>
        <time>2021-01-26T09:20:18Z</time>
      </trkpt>
      <trkpt lat="43.35008" lon="2.53025">
        <ele>411.07421875</ele>
        <time>2021-01-26T09:21:02Z</time>
      </trkpt>
      <trkpt lat="43.35013" lon="2.53087">
        <ele>427.83203125</ele>
        <time>2021-01-26T09:21:30Z</time>
      </trkpt>
      <trkpt lat="43.35017" lon="2.53166">
        <ele>446.2421875</ele>
        <time>2021-01-26T09:22:07Z</time>
      </trkpt>
      <trkpt lat="43.35038" lon="2.53249">
        <ele>458.39453125</ele>
        <time>2021-01-26T09:22:40Z</time>
      </trkpt>
      <trkpt lat="43.35063" lon="2.53298">
        <ele>459.34375</ele>
        <time>2021-01-26T09:23:06Z</time>
      </trkpt>
      <trkpt lat="43.35081" lon="2.53338">
        <ele>463.70703125</ele>
        <time>2021-01-26T09:23:33Z</time>
      </trkpt>
      <trkpt lat="43.35107" lon="2.53394">
        <ele>468.5234375</ele>
        <time>2021-01-26T09:24:23Z</time>
      </trkpt>
      <trkpt lat="43.35121" lon="2.53437">
        <ele>475.4453125</ele>
        <time>2021-01-26T09:25:02Z</time>
      </trkpt>
      <trkpt lat="43.35141" lon="2.53452">
        <ele>472.45703125</ele>
        <time>2021-01-26T09:25:14Z</time>
      </trkpt>
      <trkpt lat="43.35198" lon="2.53469">
        <ele>463.0390625</ele>
        <time>2021-01-26T09:25:37Z</time>
      </trkpt>
      <trkpt lat="43.35235" lon="2.53505">
        <ele>468.1953125</ele>
        <time>2021-01-26T09:26:20Z</time>
      </trkpt>
      <trkpt lat="43.35302" lon="2.53524">
        <ele>466.46484375</ele>
        <time>2021-01-26T09:27:01Z</time>
      </trkpt>
      <trkpt lat="43.35339" lon="2.53518">
        <ele>464.484375</ele>
        <time>2021-01-26T09:28:23Z</time>
      </trkpt>
      <trkpt lat="43.35373" lon="2.53553">
        <ele>468.65234375</ele>
        <time>2021-01-26T09:28:51Z</time>
      </trkpt>
      <trkpt lat="43.35407" lon="2.53592">
        <ele>472.87109375</ele>
        <time>2021-01-26T09:29:08Z</time>
      </trkpt>
      <trkpt lat="43.3543" lon="2.53678">
        <ele>472</ele>
        <time>2021-01-26T09:29:43Z</time>
      </trkpt>
      <trkpt lat="43.35435" lon="2.53746">
        <ele>469.78515625</ele>
        <time>2021-01-26T09:30:08Z</time>
      </trkpt>
      <trkpt lat="43.35452" lon="2.53825">
        <ele>471.4921875</ele>
        <time>2021-01-26T09:30:34Z</time>
      </trkpt>
      <trkpt lat="43.35471" lon="2.53873">
        <ele>470.375</ele>
        <time>2021-01-26T09:30:56Z</time>
      </trkpt>
      <trkpt lat="43.35497" lon="2.53941">
        <ele>471.09765625</ele>
        <time>2021-01-26T09:31:20Z</time>
      </trkpt>
      <trkpt lat="43.35518" lon="2.53983">
        <ele>472.46875</ele>
        <time>2021-01-26T09:31:41Z</time>
      </trkpt>
      <trkpt lat="43.35546" lon="2.54016">
        <ele>470.79296875</ele>
        <time>2021-01-26T09:31:57Z</time>
      </trkpt>
      <trkpt lat="43.35575" lon="2.54041">
        <ele>468.4921875</ele>
        <time>2021-01-26T09:32:11Z</time>
      </trkpt>
      <trkpt lat="43.35604" lon="2.54066">
        <ele>469.11328125</ele>
        <time>2021-01-26T09:32:26Z</time>
      </trkpt>
      <trkpt lat="43.35633" lon="2.54092">
        <ele>468.85546875</ele>
        <time>2021-01-26T09:32:40Z</time>
      </trkpt>
      <trkpt lat="43.35657" lon="2.5412">
        <ele>468.58984375</ele>
        <time>2021-01-26T09:32:53Z</time>
      </trkpt>
      <trkpt lat="43.3568" lon="2.54139">
        <ele>469.30859375</ele>
        <time>2021-01-26T09:33:09Z</time>
      </trkpt>
      <trkpt lat="43.35708" lon="2.54159">
        <ele>470.16796875</ele>
        <time>2021-01-26T09:33:24Z</time>
      </trkpt>
      <trkpt lat="43.35737" lon="2.54185">
        <ele>472.47265625</ele>
        <time>2021-01-26T09:33:39Z</time>
      </trkpt>
      <trkpt lat="43.35761" lon="2.54216">
        <ele>476.05859375</ele>
        <time>2021-01-26T09:33:55Z</time>
      </trkpt>
      <trkpt lat="43.35786" lon="2.54246">
        <ele>482.17578125</ele>
        <time>2021-01-26T09:34:16Z</time>
      </trkpt>
      <trkpt lat="43.35815" lon="2.54266">
        <ele>484.45703125</ele>
        <time>2021-01-26T09:34:32Z</time>
      </trkpt>
      <trkpt lat="43.3584" lon="2.54287">
        <ele>485.90625</ele>
        <time>2021-01-26T09:34:47Z</time>
      </trkpt>
      <trkpt lat="43.35866" lon="2.54306">
        <ele>489.0546875</ele>
        <time>2021-01-26T09:35:01Z</time>
      </trkpt>
      <trkpt lat="43.35895" lon="2.54327">
        <ele>493.453125</ele>
        <time>2021-01-26T09:35:17Z</time>
      </trkpt>
      <trkpt lat="43.35927" lon="2.54338">
        <ele>496.75390625</ele>
        <time>2021-01-26T09:35:33Z</time>
      </trkpt>
      <trkpt lat="43.35961" lon="2.5435">
        <ele>499.0546875</ele>
        <time>2021-01-26T09:35:49Z</time>
      </trkpt>
      <trkpt lat="43.35996" lon="2.54355">
        <ele>499.12890625</ele>
        <time>2021-01-26T09:36:05Z</time>
      </trkpt>
      <trkpt lat="43.36021" lon="2.5437">
        <ele>502.32421875</ele>
        <time>2021-01-26T09:36:20Z</time>
      </trkpt>
      <trkpt lat="43.36048" lon="2.54383">
        <ele>503.5</ele>
        <time>2021-01-26T09:36:35Z</time>
      </trkpt>
      <trkpt lat="43.36083" lon="2.54387">
        <ele>501.24609375</ele>
        <time>2021-01-26T09:36:50Z</time>
      </trkpt>
      <trkpt lat="43.36114" lon="2.54395">
        <ele>501.25390625</ele>
        <time>2021-01-26T09:37:06Z</time>
      </trkpt>
      <trkpt lat="43.36142" lon="2.54419">
        <ele>506.54296875</ele>
        <time>2021-01-26T09:37:23Z</time>
      </trkpt>
      <trkpt lat="43.36171" lon="2.54445">
        <ele>509.85546875</ele>
        <time>2021-01-26T09:37:41Z</time>
      </trkpt>
      <trkpt lat="43.36213" lon="2.5446">
        <ele>508.54296875</ele>
        <time>2021-01-26T09:38:09Z</time>
      </trkpt>
      <trkpt lat="43.36249" lon="2.54459">
        <ele>504.59375</ele>
        <time>2021-01-26T09:38:52Z</time>
      </trkpt>
      <trkpt lat="43.36291" lon="2.54461">
        <ele>502.52734375</ele>
        <time>2021-01-26T09:39:12Z</time>
      </trkpt>
      <trkpt lat="43.36352" lon="2.54443">
        <ele>497.1875</ele>
        <time>2021-01-26T09:39:37Z</time>
      </trkpt>
      <trkpt lat="43.36395" lon="2.5442">
        <ele>490.765625</ele>
        <time>2021-01-26T09:39:57Z</time>
      </trkpt>
      <trkpt lat="43.36451" lon="2.54393">
        <ele>478.1171875</ele>
        <time>2021-01-26T09:40:44Z</time>
      </trkpt>
      <trkpt lat="43.36488" lon="2.5439">
        <ele>479.4375</ele>
        <time>2021-01-26T09:41:03Z</time>
      </trkpt>
      <trkpt lat="43.36529" lon="2.54384">
        <ele>480.421875</ele>
        <time>2021-01-26T09:41:26Z</time>
      </trkpt>
      <trkpt lat="43.36586" lon="2.54358">
        <ele>477.0703125</ele>
        <time>2021-01-26T09:41:55Z</time>
      </trkpt>
      <trkpt lat="43.36627" lon="2.54336">
        <ele>475.6328125</ele>
        <time>2021-01-26T09:42:11Z</time>
      </trkpt>
      <trkpt lat="43.36668" lon="2.54304">
        <ele>471.88671875</ele>
        <time>2021-01-26T09:42:33Z</time>
      </trkpt>
      <trkpt lat="43.36709" lon="2.54278">
        <ele>471.0078125</ele>
        <time>2021-01-26T09:42:51Z</time>
      </trkpt>
      <trkpt lat="43.36742" lon="2.54257">
        <ele>469.015625</ele>
        <time>2021-01-26T09:43:11Z</time>
      </trkpt>
      <trkpt lat="43.36785" lon="2.54234">
        <ele>465.7265625</ele>
        <time>2021-01-26T09:43:34Z</time>
      </trkpt>
      <trkpt lat="43.36828" lon="2.5422">
        <ele>463.50390625</ele>
        <time>2021-01-26T09:43:53Z</time>
      </trkpt>
      <trkpt lat="43.36872" lon="2.5421">
        <ele>461.19921875</ele>
        <time>2021-01-26T09:44:17Z</time>
      </trkpt>
      <trkpt lat="43.36895" lon="2.54216">
        <ele>463.09765625</ele>
        <time>2021-01-26T09:44:35Z</time>
      </trkpt>
      <trkpt lat="43.36935" lon="2.54225">
        <ele>465.12109375</ele>
        <time>2021-01-26T09:44:54Z</time>
      </trkpt>
      <trkpt lat="43.36973" lon="2.54206">
        <ele>455.70703125</ele>
        <time>2021-01-26T09:45:09Z</time>
      </trkpt>
      <trkpt lat="43.37009" lon="2.54182">
        <ele>444.35546875</ele>
        <time>2021-01-26T09:45:22Z</time>
      </trkpt>
      <trkpt lat="43.37039" lon="2.54182">
        <ele>442.0390625</ele>
        <time>2021-01-26T09:45:37Z</time>
      </trkpt>
      <trkpt lat="43.37071" lon="2.54189">
        <ele>442.2734375</ele>
        <time>2021-01-26T09:45:54Z</time>
      </trkpt>
      <trkpt lat="43.3711" lon="2.54195">
        <ele>440.90234375</ele>
        <time>2021-01-26T09:46:08Z</time>
      </trkpt>
      <trkpt lat="43.37144" lon="2.54172">
        <ele>428.9609375</ele>
        <time>2021-01-26T09:46:20Z</time>
      </trkpt>
      <trkpt lat="43.37171" lon="2.54135">
        <ele>416.640625</ele>
        <time>2021-01-26T09:46:33Z</time>
      </trkpt>
      <trkpt lat="43.37186" lon="2.54093">
        <ele>405.6796875</ele>
        <time>2021-01-26T09:46:52Z</time>
      </trkpt>
      <trkpt lat="43.37154" lon="2.54095">
        <ele>408.4453125</ele>
        <time>2021-01-26T09:47:09Z</time>
      </trkpt>
      <trkpt lat="43.37166" lon="2.54081">
        <ele>403.3828125</ele>
        <time>2021-01-26T09:47:28Z</time>
      </trkpt>
      <trkpt lat="43.37185" lon="2.54037">
        <ele>389.4140625</ele>
        <time>2021-01-26T09:47:46Z</time>
      </trkpt>
      <trkpt lat="43.37203" lon="2.54017">
        <ele>381.57421875</ele>
        <time>2021-01-26T09:48:10Z</time>
      </trkpt>
      <trkpt lat="43.37224" lon="2.54038">
        <ele>383.671875</ele>
        <time>2021-01-26T09:48:30Z</time>
      </trkpt>
      <trkpt lat="43.37243" lon="2.54067">
        <ele>386.609375</ele>
        <time>2021-01-26T09:48:43Z</time>
      </trkpt>
      <trkpt lat="43.37245" lon="2.54115">
        <ele>396.6328125</ele>
        <time>2021-01-26T09:49:01Z</time>
      </trkpt>
      <trkpt lat="43.37264" lon="2.54162">
        <ele>402.12890625</ele>
        <time>2021-01-26T09:49:14Z</time>
      </trkpt>
      <trkpt lat="43.3729" lon="2.54189">
        <ele>401.3671875</ele>
        <time>2021-01-26T09:49:28Z</time>
      </trkpt>
      <trkpt lat="43.37315" lon="2.54198">
        <ele>396.86328125</ele>
        <time>2021-01-26T09:50:05Z</time>
      </trkpt>
      <trkpt lat="43.37344" lon="2.54211">
        <ele>393.08984375</ele>
        <time>2021-01-26T09:50:44Z</time>
      </trkpt>
      <trkpt lat="43.37371" lon="2.54227">
        <ele>392.12109375</ele>
        <time>2021-01-26T09:50:57Z</time>
      </trkpt>
      <trkpt lat="43.37405" lon="2.5424">
        <ele>389.5546875</ele>
        <time>2021-01-26T09:51:11Z</time>
      </trkpt>
      <trkpt lat="43.37446" lon="2.54248">
        <ele>384.34765625</ele>
        <time>2021-01-26T09:51:23Z</time>
      </trkpt>
      <trkpt lat="43.37487" lon="2.54255">
        <ele>384.546875</ele>
        <time>2021-01-26T09:51:35Z</time>
      </trkpt>
      <trkpt lat="43.37525" lon="2.54265">
        <ele>385.96484375</ele>
        <time>2021-01-26T09:51:48Z</time>
      </trkpt>
      <trkpt lat="43.3756" lon="2.54265">
        <ele>388.69140625</ele>
        <time>2021-01-26T09:52:00Z</time>
      </trkpt>
      <trkpt lat="43.3759" lon="2.54256">
        <ele>388.34765625</ele>
        <time>2021-01-26T09:52:11Z</time>
      </trkpt>
      <trkpt lat="43.37617" lon="2.54228">
        <ele>384.18359375</ele>
        <time>2021-01-26T09:52:25Z</time>
      </trkpt>
      <trkpt lat="43.37645" lon="2.54203">
        <ele>382.08203125</ele>
        <time>2021-01-26T09:52:37Z</time>
      </trkpt>
      <trkpt lat="43.37674" lon="2.54173">
        <ele>378.9765625</ele>
        <time>2021-01-26T09:52:50Z</time>
      </trkpt>
      <trkpt lat="43.37701" lon="2.54147">
        <ele>380.046875</ele>
        <time>2021-01-26T09:53:01Z</time>
      </trkpt>
      <trkpt lat="43.37727" lon="2.54116">
        <ele>381.23828125</ele>
        <time>2021-01-26T09:53:13Z</time>
      </trkpt>
      <trkpt lat="43.37753" lon="2.5409">
        <ele>382.828125</ele>
        <time>2021-01-26T09:53:24Z</time>
      </trkpt>
      <trkpt lat="43.37773" lon="2.54054">
        <ele>381.8984375</ele>
        <time>2021-01-26T09:53:35Z</time>
      </trkpt>
      <trkpt lat="43.37783" lon="2.54027">
        <ele>379.57421875</ele>
        <time>2021-01-26T09:53:56Z</time>
      </trkpt>
      <trkpt lat="43.37753" lon="2.54048">
        <ele>378.34765625</ele>
        <time>2021-01-26T09:54:58Z</time>
      </trkpt>
      <trkpt lat="43.37732" lon="2.54061">
        <ele>376.609375</ele>
        <time>2021-01-26T09:55:16Z</time>
      </trkpt>
      <trkpt lat="43.37698" lon="2.54058">
        <ele>371.125</ele>
        <time>2021-01-26T09:55:43Z</time>
      </trkpt>
      <trkpt lat="43.37661" lon="2.54015">
        <ele>372.984375</ele>
        <time>2021-01-26T09:55:50Z</time>
      </trkpt>
      <trkpt lat="43.37636" lon="2.54009">
        <ele>376.75</ele>
        <time>2021-01-26T09:55:59Z</time>
      </trkpt>
      <trkpt lat="43.37616" lon="2.54085">
        <ele>366.19921875</ele>
        <time>2021-01-26T09:56:12Z</time>
      </trkpt>
      <trkpt lat="43.37587" lon="2.54095">
        <ele>364.0078125</ele>
        <time>2021-01-26T09:56:24Z</time>
      </trkpt>
      <trkpt lat="43.3755" lon="2.54101">
        <ele>364.1328125</ele>
        <time>2021-01-26T09:56:43Z</time>
      </trkpt>
      <trkpt lat="43.37513" lon="2.541">
        <ele>364.01953125</ele>
        <time>2021-01-26T09:56:57Z</time>
      </trkpt>
      <trkpt lat="43.37472" lon="2.54092">
        <ele>364.7578125</ele>
        <time>2021-01-26T09:57:11Z</time>
      </trkpt>
      <trkpt lat="43.37438" lon="2.5408">
        <ele>367.26953125</ele>
        <time>2021-01-26T09:57:26Z</time>
      </trkpt>
      <trkpt lat="43.37408" lon="2.54045">
        <ele>371.41015625</ele>
        <time>2021-01-26T09:57:42Z</time>
      </trkpt>
      <trkpt lat="43.37377" lon="2.54004">
        <ele>371.953125</ele>
        <time>2021-01-26T09:57:55Z</time>
      </trkpt>
      <trkpt lat="43.37346" lon="2.53981">
        <ele>370.99609375</ele>
        <time>2021-01-26T09:58:10Z</time>
      </trkpt>
      <trkpt lat="43.37314" lon="2.53944">
        <ele>370.78515625</ele>
        <time>2021-01-26T09:58:30Z</time>
      </trkpt>
      <trkpt lat="43.3729" lon="2.5391">
        <ele>369.9609375</ele>
        <time>2021-01-26T09:58:45Z</time>
      </trkpt>
      <trkpt lat="43.373" lon="2.53927">
        <ele>369.0390625</ele>
        <time>2021-01-26T09:59:19Z</time>
      </trkpt>
      <trkpt lat="43.37323" lon="2.53959">
        <ele>371.109375</ele>
        <time>2021-01-26T09:59:33Z</time>
      </trkpt>
      <trkpt lat="43.37347" lon="2.53955">
        <ele>374.03125</ele>
        <time>2021-01-26T09:59:53Z</time>
      </trkpt>
      <trkpt lat="43.37348" lon="2.53899">
        <ele>384.5</ele>
        <time>2021-01-26T10:00:29Z</time>
      </trkpt>
      <trkpt lat="43.37369" lon="2.53873">
        <ele>397.0546875</ele>
        <time>2021-01-26T10:01:14Z</time>
      </trkpt>
      <trkpt lat="43.37402" lon="2.53894">
        <ele>403.046875</ele>
        <time>2021-01-26T10:01:58Z</time>
      </trkpt>
      <trkpt lat="43.37439" lon="2.53923">
        <ele>406.8671875</ele>
        <time>2021-01-26T10:02:25Z</time>
      </trkpt>
      <trkpt lat="43.37476" lon="2.53944">
        <ele>408.39453125</ele>
        <time>2021-01-26T10:02:57Z</time>
      </trkpt>
      <trkpt lat="43.37506" lon="2.53929">
        <ele>419.890625</ele>
        <time>2021-01-26T10:03:39Z</time>
      </trkpt>
      <trkpt lat="43.37541" lon="2.53922">
        <ele>423.61328125</ele>
        <time>2021-01-26T10:04:34Z</time>
      </trkpt>
      <trkpt lat="43.37561" lon="2.53879">
        <ele>436.9453125</ele>
        <time>2021-01-26T10:05:19Z</time>
      </trkpt>
      <trkpt lat="43.3758" lon="2.53832">
        <ele>453.69921875</ele>
        <time>2021-01-26T10:05:55Z</time>
      </trkpt>
      <trkpt lat="43.37603" lon="2.53806">
        <ele>463.5859375</ele>
        <time>2021-01-26T10:06:33Z</time>
      </trkpt>
      <trkpt lat="43.37617" lon="2.53763">
        <ele>479.27734375</ele>
        <time>2021-01-26T10:07:18Z</time>
      </trkpt>
      <trkpt lat="43.37644" lon="2.53715">
        <ele>488.96875</ele>
        <time>2021-01-26T10:07:57Z</time>
      </trkpt>
      <trkpt lat="43.37661" lon="2.53678">
        <ele>498.171875</ele>
        <time>2021-01-26T10:08:33Z</time>
      </trkpt>
      <trkpt lat="43.37674" lon="2.53638">
        <ele>503.4375</ele>
        <time>2021-01-26T10:09:09Z</time>
      </trkpt>
      <trkpt lat="43.37697" lon="2.53602">
        <ele>510.046875</ele>
        <time>2021-01-26T10:09:50Z</time>
      </trkpt>
      <trkpt lat="43.37715" lon="2.53566">
        <ele>507.875</ele>
        <time>2021-01-26T10:11:34Z</time>
      </trkpt>
      <trkpt lat="43.37736" lon="2.53542">
        <ele>507.1953125</ele>
        <time>2021-01-26T10:12:18Z</time>
      </trkpt>
      <trkpt lat="43.37762" lon="2.53545">
        <ele>510.78515625</ele>
        <time>2021-01-26T10:13:11Z</time>
      </trkpt>
      <trkpt lat="43.37776" lon="2.53548">
        <ele>512.578125</ele>
        <time>2021-01-26T10:15:34Z</time>
      </trkpt>
      <trkpt lat="43.37774" lon="2.53521">
        <ele>511.47265625</ele>
        <time>2021-01-26T10:16:24Z</time>
      </trkpt>
      <trkpt lat="43.37723" lon="2.53511">
        <ele>501.43359375</ele>
        <time>2021-01-26T10:17:11Z</time>
      </trkpt>
      <trkpt lat="43.37665" lon="2.53567">
        <ele>503.07421875</ele>
        <time>2021-01-26T10:17:56Z</time>
      </trkpt>
      <trkpt lat="43.37645" lon="2.53562">
        <ele>499.86328125</ele>
        <time>2021-01-26T10:22:17Z</time>
      </trkpt>
      <trkpt lat="43.37631" lon="2.53499">
        <ele>480.53515625</ele>
        <time>2021-01-26T10:22:55Z</time>
      </trkpt>
      <trkpt lat="43.37612" lon="2.5346">
        <ele>463.24609375</ele>
        <time>2021-01-26T10:23:23Z</time>
      </trkpt>
      <trkpt lat="43.37593" lon="2.53425">
        <ele>447.3984375</ele>
        <time>2021-01-26T10:24:05Z</time>
      </trkpt>
      <trkpt lat="43.37571" lon="2.53395">
        <ele>432.30859375</ele>
        <time>2021-01-26T10:24:34Z</time>
      </trkpt>
      <trkpt lat="43.37554" lon="2.53374">
        <ele>421.44921875</ele>
        <time>2021-01-26T10:25:01Z</time>
      </trkpt>
      <trkpt lat="43.37565" lon="2.53331">
        <ele>408.2578125</ele>
        <time>2021-01-26T10:25:29Z</time>
      </trkpt>
      <trkpt lat="43.37577" lon="2.53289">
        <ele>398.828125</ele>
        <time>2021-01-26T10:26:07Z</time>
      </trkpt>
      <trkpt lat="43.37554" lon="2.53249">
        <ele>389.890625</ele>
        <time>2021-01-26T10:26:45Z</time>
      </trkpt>
      <trkpt lat="43.37541" lon="2.53211">
        <ele>387.73828125</ele>
        <time>2021-01-26T10:32:00Z</time>
      </trkpt>
      <trkpt lat="43.37512" lon="2.53192">
        <ele>384.51171875</ele>
        <time>2021-01-26T10:32:34Z</time>
      </trkpt>
      <trkpt lat="43.3748" lon="2.53177">
        <ele>382.171875</ele>
        <time>2021-01-26T10:32:50Z</time>
      </trkpt>
      <trkpt lat="43.37455" lon="2.53165">
        <ele>382.49609375</ele>
        <time>2021-01-26T10:33:05Z</time>
      </trkpt>
      <trkpt lat="43.3743" lon="2.53135">
        <ele>388.4296875</ele>
        <time>2021-01-26T10:33:21Z</time>
      </trkpt>
      <trkpt lat="43.37398" lon="2.53106">
        <ele>400.66015625</ele>
        <time>2021-01-26T10:33:39Z</time>
      </trkpt>
      <trkpt lat="43.37417" lon="2.53059">
        <ele>409.66015625</ele>
        <time>2021-01-26T10:34:15Z</time>
      </trkpt>
      <trkpt lat="43.37446" lon="2.53008">
        <ele>415.796875</ele>
        <time>2021-01-26T10:34:38Z</time>
      </trkpt>
      <trkpt lat="43.37493" lon="2.52986">
        <ele>415.1640625</ele>
        <time>2021-01-26T10:34:55Z</time>
      </trkpt>
      <trkpt lat="43.37525" lon="2.52904">
        <ele>423.41796875</ele>
        <time>2021-01-26T10:35:39Z</time>
      </trkpt>
      <trkpt lat="43.3755" lon="2.52856">
        <ele>430.90625</ele>
        <time>2021-01-26T10:36:06Z</time>
      </trkpt>
      <trkpt lat="43.37552" lon="2.52781">
        <ele>441.3203125</ele>
        <time>2021-01-26T10:36:39Z</time>
      </trkpt>
      <trkpt lat="43.37563" lon="2.52707">
        <ele>448.3671875</ele>
        <time>2021-01-26T10:37:18Z</time>
      </trkpt>
      <trkpt lat="43.3757" lon="2.5262">
        <ele>452.6171875</ele>
        <time>2021-01-26T10:37:53Z</time>
      </trkpt>
      <trkpt lat="43.37583" lon="2.52563">
        <ele>447.26171875</ele>
        <time>2021-01-26T10:38:43Z</time>
      </trkpt>
      <trkpt lat="43.37578" lon="2.52527">
        <ele>448.04296875</ele>
        <time>2021-01-26T10:39:43Z</time>
      </trkpt>
      <trkpt lat="43.37544" lon="2.52475">
        <ele>457.578125</ele>
        <time>2021-01-26T10:40:27Z</time>
      </trkpt>
      <trkpt lat="43.37512" lon="2.52416">
        <ele>462.28125</ele>
        <time>2021-01-26T10:41:23Z</time>
      </trkpt>
      <trkpt lat="43.37486" lon="2.5235">
        <ele>466.66796875</ele>
        <time>2021-01-26T10:42:15Z</time>
      </trkpt>
      <trkpt lat="43.37464" lon="2.52371">
        <ele>477.59375</ele>
        <time>2021-01-26T10:43:12Z</time>
      </trkpt>
      <trkpt lat="43.37466" lon="2.52352">
        <ele>473.46875</ele>
        <time>2021-01-26T10:44:20Z</time>
      </trkpt>
      <trkpt lat="43.37433" lon="2.52375">
        <ele>490.03125</ele>
        <time>2021-01-26T10:44:56Z</time>
      </trkpt>
      <trkpt lat="43.37393" lon="2.52344">
        <ele>498.34765625</ele>
        <time>2021-01-26T10:45:31Z</time>
      </trkpt>
      <trkpt lat="43.37325" lon="2.52338">
        <ele>519.87890625</ele>
        <time>2021-01-26T10:46:27Z</time>
      </trkpt>
      <trkpt lat="43.3729" lon="2.52342">
        <ele>528.2421875</ele>
        <time>2021-01-26T10:47:23Z</time>
      </trkpt>
      <trkpt lat="43.37299" lon="2.5238">
        <ele>532.5078125</ele>
        <time>2021-01-26T10:49:17Z</time>
      </trkpt>
      <trkpt lat="43.37286" lon="2.5243">
        <ele>545</ele>
        <time>2021-01-26T10:50:14Z</time>
      </trkpt>
      <trkpt lat="43.37253" lon="2.52464">
        <ele>557.8046875</ele>
        <time>2021-01-26T10:51:01Z</time>
      </trkpt>
      <trkpt lat="43.37222" lon="2.52488">
        <ele>565.6953125</ele>
        <time>2021-01-26T10:51:45Z</time>
      </trkpt>
      <trkpt lat="43.37181" lon="2.52486">
        <ele>570.05078125</ele>
        <time>2021-01-26T10:52:27Z</time>
      </trkpt>
      <trkpt lat="43.37158" lon="2.52483">
        <ele>571.17578125</ele>
        <time>2021-01-26T10:53:20Z</time>
      </trkpt>
      <trkpt lat="43.37153" lon="2.52483">
        <ele>575.2265625</ele>
        <time>2021-01-26T10:53:58Z</time>
      </trkpt>
      <trkpt lat="43.37144" lon="2.52476">
        <ele>580.5546875</ele>
        <time>2021-01-26T10:55:48Z</time>
      </trkpt>
      <trkpt lat="43.37133" lon="2.52478">
        <ele>583.0546875</ele>
        <time>2021-01-26T10:56:39Z</time>
      </trkpt>
      <trkpt lat="43.37126" lon="2.52474">
        <ele>584.29296875</ele>
        <time>2021-01-26T10:57:27Z</time>
      </trkpt>
      <trkpt lat="43.37104" lon="2.52471">
        <ele>594.33984375</ele>
        <time>2021-01-26T10:58:14Z</time>
      </trkpt>
      <trkpt lat="43.37078" lon="2.52467">
        <ele>600.9140625</ele>
        <time>2021-01-26T10:58:59Z</time>
      </trkpt>
      <trkpt lat="43.37054" lon="2.52444">
        <ele>610.28125</ele>
        <time>2021-01-26T10:59:49Z</time>
      </trkpt>
      <trkpt lat="43.37034" lon="2.52371">
        <ele>626.83984375</ele>
        <time>2021-01-26T11:00:40Z</time>
      </trkpt>
      <trkpt lat="43.3704" lon="2.52355">
        <ele>636.93359375</ele>
        <time>2021-01-26T11:01:19Z</time>
      </trkpt>
      <trkpt lat="43.37045" lon="2.52328">
        <ele>640.90625</ele>
        <time>2021-01-26T11:01:38Z</time>
      </trkpt>
      <trkpt lat="43.37053" lon="2.52287">
        <ele>646.2890625</ele>
        <time>2021-01-26T11:01:56Z</time>
      </trkpt>
      <trkpt lat="43.37063" lon="2.52241">
        <ele>652.0234375</ele>
        <time>2021-01-26T11:02:13Z</time>
      </trkpt>
      <trkpt lat="43.37068" lon="2.52197">
        <ele>658.484375</ele>
        <time>2021-01-26T11:02:29Z</time>
      </trkpt>
      <trkpt lat="43.37074" lon="2.52145">
        <ele>666.35546875</ele>
        <time>2021-01-26T11:02:52Z</time>
      </trkpt>
      <trkpt lat="43.37078" lon="2.5211">
        <ele>669.1171875</ele>
        <time>2021-01-26T11:03:16Z</time>
      </trkpt>
      <trkpt lat="43.37101" lon="2.52051">
        <ele>655.20703125</ele>
        <time>2021-01-26T11:03:39Z</time>
      </trkpt>
      <trkpt lat="43.37122" lon="2.52009">
        <ele>657.2265625</ele>
        <time>2021-01-26T11:03:56Z</time>
      </trkpt>
      <trkpt lat="43.37143" lon="2.51968">
        <ele>659.18359375</ele>
        <time>2021-01-26T11:04:14Z</time>
      </trkpt>
      <trkpt lat="43.3716" lon="2.51917">
        <ele>663.66796875</ele>
        <time>2021-01-26T11:04:35Z</time>
      </trkpt>
      <trkpt lat="43.3717" lon="2.51874">
        <ele>666.6484375</ele>
        <time>2021-01-26T11:04:56Z</time>
      </trkpt>
      <trkpt lat="43.37181" lon="2.51834">
        <ele>667.5390625</ele>
        <time>2021-01-26T11:05:16Z</time>
      </trkpt>
      <trkpt lat="43.37192" lon="2.51792">
        <ele>665.515625</ele>
        <time>2021-01-26T11:05:35Z</time>
      </trkpt>
      <trkpt lat="43.372" lon="2.51753">
        <ele>663.78125</ele>
        <time>2021-01-26T11:05:52Z</time>
      </trkpt>
      <trkpt lat="43.37199" lon="2.51712">
        <ele>663.97265625</ele>
        <time>2021-01-26T11:06:08Z</time>
      </trkpt>
      <trkpt lat="43.37192" lon="2.51673">
        <ele>666.3671875</ele>
        <time>2021-01-26T11:06:25Z</time>
      </trkpt>
      <trkpt lat="43.37185" lon="2.51637">
        <ele>666.390625</ele>
        <time>2021-01-26T11:06:41Z</time>
      </trkpt>
      <trkpt lat="43.37176" lon="2.51597">
        <ele>665.59375</ele>
        <time>2021-01-26T11:06:59Z</time>
      </trkpt>
      <trkpt lat="43.37168" lon="2.51547">
        <ele>664.99609375</ele>
        <time>2021-01-26T11:07:18Z</time>
      </trkpt>
      <trkpt lat="43.37173" lon="2.51495">
        <ele>664.08984375</ele>
        <time>2021-01-26T11:07:35Z</time>
      </trkpt>
      <trkpt lat="43.37191" lon="2.51453">
        <ele>666.15234375</ele>
        <time>2021-01-26T11:07:49Z</time>
      </trkpt>
      <trkpt lat="43.37215" lon="2.51415">
        <ele>664.82421875</ele>
        <time>2021-01-26T11:08:08Z</time>
      </trkpt>
      <trkpt lat="43.37211" lon="2.51376">
        <ele>663.5546875</ele>
        <time>2021-01-26T11:09:19Z</time>
      </trkpt>
      <trkpt lat="43.3719" lon="2.5134">
        <ele>659.9921875</ele>
        <time>2021-01-26T11:10:06Z</time>
      </trkpt>
      <trkpt lat="43.37159" lon="2.51281">
        <ele>646.23828125</ele>
        <time>2021-01-26T11:10:37Z</time>
      </trkpt>
      <trkpt lat="43.3714" lon="2.51248">
        <ele>637.00390625</ele>
        <time>2021-01-26T11:11:37Z</time>
      </trkpt>
      <trkpt lat="43.37122" lon="2.51206">
        <ele>625.4609375</ele>
        <time>2021-01-26T11:12:19Z</time>
      </trkpt>
      <trkpt lat="43.37095" lon="2.51196">
        <ele>615.51171875</ele>
        <time>2021-01-26T11:13:01Z</time>
      </trkpt>
      <trkpt lat="43.37091" lon="2.51168">
        <ele>610.9921875</ele>
        <time>2021-01-26T11:13:33Z</time>
      </trkpt>
      <trkpt lat="43.37065" lon="2.51127">
        <ele>600.41015625</ele>
        <time>2021-01-26T11:14:05Z</time>
      </trkpt>
      <trkpt lat="43.37028" lon="2.51151">
        <ele>592.85546875</ele>
        <time>2021-01-26T11:14:30Z</time>
      </trkpt>
      <trkpt lat="43.36986" lon="2.51183">
        <ele>588.44921875</ele>
        <time>2021-01-26T11:14:51Z</time>
      </trkpt>
      <trkpt lat="43.36938" lon="2.51238">
        <ele>586.0859375</ele>
        <time>2021-01-26T11:15:27Z</time>
      </trkpt>
      <trkpt lat="43.36918" lon="2.51265">
        <ele>586.6015625</ele>
        <time>2021-01-26T11:15:50Z</time>
      </trkpt>
      <trkpt lat="43.3692" lon="2.51229">
        <ele>584.265625</ele>
        <time>2021-01-26T11:16:05Z</time>
      </trkpt>
      <trkpt lat="43.36934" lon="2.512">
        <ele>582.1015625</ele>
        <time>2021-01-26T11:16:19Z</time>
      </trkpt>
      <trkpt lat="43.36957" lon="2.51172">
        <ele>582.69921875</ele>
        <time>2021-01-26T11:16:32Z</time>
      </trkpt>
      <trkpt lat="43.36988" lon="2.51132">
        <ele>585.5078125</ele>
        <time>2021-01-26T11:16:52Z</time>
      </trkpt>
      <trkpt lat="43.3701" lon="2.51092">
        <ele>585.0625</ele>
        <time>2021-01-26T11:17:12Z</time>
      </trkpt>
      <trkpt lat="43.37021" lon="2.51052">
        <ele>585.91015625</ele>
        <time>2021-01-26T11:17:29Z</time>
      </trkpt>
      <trkpt lat="43.37037" lon="2.51008">
        <ele>589.2265625</ele>
        <time>2021-01-26T11:17:47Z</time>
      </trkpt>
      <trkpt lat="43.37061" lon="2.50961">
        <ele>593.52734375</ele>
        <time>2021-01-26T11:18:02Z</time>
      </trkpt>
      <trkpt lat="43.3707" lon="2.50911">
        <ele>594.5078125</ele>
        <time>2021-01-26T11:18:20Z</time>
      </trkpt>
      <trkpt lat="43.37081" lon="2.50855">
        <ele>597.09765625</ele>
        <time>2021-01-26T11:18:38Z</time>
      </trkpt>
      <trkpt lat="43.37089" lon="2.50805">
        <ele>599.8984375</ele>
        <time>2021-01-26T11:18:54Z</time>
      </trkpt>
      <trkpt lat="43.37097" lon="2.50746">
        <ele>603.765625</ele>
        <time>2021-01-26T11:19:32Z</time>
      </trkpt>
      <trkpt lat="43.3708" lon="2.50709">
        <ele>604.0703125</ele>
        <time>2021-01-26T11:20:10Z</time>
      </trkpt>
      <trkpt lat="43.37051" lon="2.50693">
        <ele>600.99609375</ele>
        <time>2021-01-26T11:20:40Z</time>
      </trkpt>
      <trkpt lat="43.37003" lon="2.50708">
        <ele>600.39453125</ele>
        <time>2021-01-26T11:21:28Z</time>
      </trkpt>
      <trkpt lat="43.36963" lon="2.50713">
        <ele>607.97265625</ele>
        <time>2021-01-26T11:22:04Z</time>
      </trkpt>
      <trkpt lat="43.36969" lon="2.50647">
        <ele>611.18359375</ele>
        <time>2021-01-26T11:22:31Z</time>
      </trkpt>
      <trkpt lat="43.36966" lon="2.50587">
        <ele>613.76953125</ele>
        <time>2021-01-26T11:23:00Z</time>
      </trkpt>
      <trkpt lat="43.36953" lon="2.50548">
        <ele>616.62890625</ele>
        <time>2021-01-26T11:23:22Z</time>
      </trkpt>
      <trkpt lat="43.36944" lon="2.50493">
        <ele>618.44921875</ele>
        <time>2021-01-26T11:23:42Z</time>
      </trkpt>
      <trkpt lat="43.36938" lon="2.50436">
        <ele>620.171875</ele>
        <time>2021-01-26T11:24:01Z</time>
      </trkpt>
      <trkpt lat="43.36934" lon="2.50379">
        <ele>621.46875</ele>
        <time>2021-01-26T11:24:18Z</time>
      </trkpt>
      <trkpt lat="43.3693" lon="2.50325">
        <ele>623.46484375</ele>
        <time>2021-01-26T11:24:35Z</time>
      </trkpt>
      <trkpt lat="43.36938" lon="2.50272">
        <ele>622.765625</ele>
        <time>2021-01-26T11:24:57Z</time>
      </trkpt>
      <trkpt lat="43.36946" lon="2.5025">
        <ele>622.953125</ele>
        <time>2021-01-26T11:25:39Z</time>
      </trkpt>
      <trkpt lat="43.36955" lon="2.50194">
        <ele>627.265625</ele>
        <time>2021-01-26T11:26:01Z</time>
      </trkpt>
      <trkpt lat="43.36953" lon="2.50125">
        <ele>632.578125</ele>
        <time>2021-01-26T11:26:29Z</time>
      </trkpt>
      <trkpt lat="43.36952" lon="2.50045">
        <ele>636.59375</ele>
        <time>2021-01-26T11:26:55Z</time>
      </trkpt>
      <trkpt lat="43.3696" lon="2.4999">
        <ele>637.51171875</ele>
        <time>2021-01-26T11:27:13Z</time>
      </trkpt>
      <trkpt lat="43.36964" lon="2.49924">
        <ele>641.96484375</ele>
        <time>2021-01-26T11:27:34Z</time>
      </trkpt>
      <trkpt lat="43.36971" lon="2.49862">
        <ele>647.6484375</ele>
        <time>2021-01-26T11:28:03Z</time>
      </trkpt>
      <trkpt lat="43.36974" lon="2.49822">
        <ele>650.18359375</ele>
        <time>2021-01-26T11:28:48Z</time>
      </trkpt>
      <trkpt lat="43.36978" lon="2.49802">
        <ele>650.61328125</ele>
        <time>2021-01-26T11:29:12Z</time>
      </trkpt>
      <trkpt lat="43.36975" lon="2.49762">
        <ele>654.3984375</ele>
        <time>2021-01-26T11:29:28Z</time>
      </trkpt>
      <trkpt lat="43.36977" lon="2.49716">
        <ele>655.32421875</ele>
        <time>2021-01-26T11:29:43Z</time>
      </trkpt>
      <trkpt lat="43.36978" lon="2.49674">
        <ele>656.66796875</ele>
        <time>2021-01-26T11:29:58Z</time>
      </trkpt>
      <trkpt lat="43.36978" lon="2.49628">
        <ele>658.171875</ele>
        <time>2021-01-26T11:30:15Z</time>
      </trkpt>
      <trkpt lat="43.36987" lon="2.49548">
        <ele>659.70703125</ele>
        <time>2021-01-26T11:30:37Z</time>
      </trkpt>
      <trkpt lat="43.37006" lon="2.49503">
        <ele>659.3203125</ele>
        <time>2021-01-26T11:30:54Z</time>
      </trkpt>
      <trkpt lat="43.37037" lon="2.49473">
        <ele>658.58984375</ele>
        <time>2021-01-26T11:31:08Z</time>
      </trkpt>
      <trkpt lat="43.37068" lon="2.49455">
        <ele>659.015625</ele>
        <time>2021-01-26T11:31:21Z</time>
      </trkpt>
      <trkpt lat="43.37104" lon="2.49433">
        <ele>660.84375</ele>
        <time>2021-01-26T11:31:36Z</time>
      </trkpt>
      <trkpt lat="43.37086" lon="2.49414">
        <ele>663.3515625</ele>
        <time>2021-01-26T11:32:00Z</time>
      </trkpt>
      <trkpt lat="43.37048" lon="2.49431">
        <ele>663.1328125</ele>
        <time>2021-01-26T11:32:26Z</time>
      </trkpt>
      <trkpt lat="43.37007" lon="2.49447">
        <ele>663.90234375</ele>
        <time>2021-01-26T11:32:55Z</time>
      </trkpt>
      <trkpt lat="43.36958" lon="2.49502">
        <ele>667.13671875</ele>
        <time>2021-01-26T11:33:23Z</time>
      </trkpt>
      <trkpt lat="43.3694" lon="2.49461">
        <ele>670.171875</ele>
        <time>2021-01-26T11:33:57Z</time>
      </trkpt>
      <trkpt lat="43.36949" lon="2.49413">
        <ele>668.29296875</ele>
        <time>2021-01-26T11:34:23Z</time>
      </trkpt>
      <trkpt lat="43.36951" lon="2.49367">
        <ele>665.48828125</ele>
        <time>2021-01-26T11:35:07Z</time>
      </trkpt>
      <trkpt lat="43.36937" lon="2.49365">
        <ele>665.58203125</ele>
        <time>2021-01-26T11:35:53Z</time>
      </trkpt>
      <trkpt lat="43.36894" lon="2.4939">
        <ele>671.28515625</ele>
        <time>2021-01-26T11:36:24Z</time>
      </trkpt>
      <trkpt lat="43.36844" lon="2.49393">
        <ele>677.765625</ele>
        <time>2021-01-26T11:37:05Z</time>
      </trkpt>
      <trkpt lat="43.36781" lon="2.49393">
        <ele>691.421875</ele>
        <time>2021-01-26T11:37:34Z</time>
      </trkpt>
      <trkpt lat="43.36757" lon="2.49401">
        <ele>698.15234375</ele>
        <time>2021-01-26T11:37:48Z</time>
      </trkpt>
      <trkpt lat="43.36735" lon="2.49412">
        <ele>705.2109375</ele>
        <time>2021-01-26T11:38:09Z</time>
      </trkpt>
      <trkpt lat="43.3671" lon="2.49444">
        <ele>714.6796875</ele>
        <time>2021-01-26T11:38:54Z</time>
      </trkpt>
      <trkpt lat="43.36673" lon="2.49472">
        <ele>725.89453125</ele>
        <time>2021-01-26T11:39:43Z</time>
      </trkpt>
      <trkpt lat="43.36643" lon="2.49506">
        <ele>734.83203125</ele>
        <time>2021-01-26T11:40:23Z</time>
      </trkpt>
      <trkpt lat="43.36601" lon="2.49531">
        <ele>743.453125</ele>
        <time>2021-01-26T11:41:01Z</time>
      </trkpt>
      <trkpt lat="43.36547" lon="2.49537">
        <ele>746.40234375</ele>
        <time>2021-01-26T11:41:51Z</time>
      </trkpt>
      <trkpt lat="43.36545" lon="2.49551">
        <ele>747.890625</ele>
        <time>2021-01-26T11:44:37Z</time>
      </trkpt>
      <trkpt lat="43.36515" lon="2.49559">
        <ele>748.60546875</ele>
        <time>2021-01-26T11:45:10Z</time>
      </trkpt>
      <trkpt lat="43.36485" lon="2.49566">
        <ele>745.40625</ele>
        <time>2021-01-26T11:45:25Z</time>
      </trkpt>
      <trkpt lat="43.36457" lon="2.49566">
        <ele>741.74609375</ele>
        <time>2021-01-26T11:45:41Z</time>
      </trkpt>
      <trkpt lat="43.36426" lon="2.49574">
        <ele>737.5859375</ele>
        <time>2021-01-26T11:45:58Z</time>
      </trkpt>
      <trkpt lat="43.36393" lon="2.49582">
        <ele>732.1484375</ele>
        <time>2021-01-26T11:46:12Z</time>
      </trkpt>
      <trkpt lat="43.36359" lon="2.49584">
        <ele>726.13671875</ele>
        <time>2021-01-26T11:46:26Z</time>
      </trkpt>
      <trkpt lat="43.36322" lon="2.49582">
        <ele>721.796875</ele>
        <time>2021-01-26T11:46:41Z</time>
      </trkpt>
      <trkpt lat="43.36284" lon="2.49597">
        <ele>718.94140625</ele>
        <time>2021-01-26T11:46:54Z</time>
      </trkpt>
      <trkpt lat="43.36248" lon="2.49607">
        <ele>713.84765625</ele>
        <time>2021-01-26T11:47:12Z</time>
      </trkpt>
      <trkpt lat="43.36216" lon="2.49611">
        <ele>709.046875</ele>
        <time>2021-01-26T11:48:05Z</time>
      </trkpt>
      <trkpt lat="43.36188" lon="2.49617">
        <ele>704.51953125</ele>
        <time>2021-01-26T11:48:18Z</time>
      </trkpt>
      <trkpt lat="43.36157" lon="2.49619">
        <ele>698.20703125</ele>
        <time>2021-01-26T11:48:37Z</time>
      </trkpt>
      <trkpt lat="43.36122" lon="2.49605">
        <ele>690.87890625</ele>
        <time>2021-01-26T11:49:06Z</time>
      </trkpt>
      <trkpt lat="43.36086" lon="2.49592">
        <ele>684.05078125</ele>
        <time>2021-01-26T11:49:25Z</time>
      </trkpt>
      <trkpt lat="43.36063" lon="2.49596">
        <ele>679.921875</ele>
        <time>2021-01-26T11:49:35Z</time>
      </trkpt>
      <trkpt lat="43.36043" lon="2.49599">
        <ele>676.18359375</ele>
        <time>2021-01-26T11:49:44Z</time>
      </trkpt>
      <trkpt lat="43.35989" lon="2.49595">
        <ele>667.74609375</ele>
        <time>2021-01-26T11:50:09Z</time>
      </trkpt>
      <trkpt lat="43.35937" lon="2.49626">
        <ele>661.6484375</ele>
        <time>2021-01-26T11:50:41Z</time>
      </trkpt>
      <trkpt lat="43.35906" lon="2.49645">
        <ele>660.25390625</ele>
        <time>2021-01-26T11:51:05Z</time>
      </trkpt>
      <trkpt lat="43.35864" lon="2.49671">
        <ele>660.1640625</ele>
        <time>2021-01-26T11:51:27Z</time>
      </trkpt>
      <trkpt lat="43.35827" lon="2.49704">
        <ele>660.140625</ele>
        <time>2021-01-26T11:51:53Z</time>
      </trkpt>
      <trkpt lat="43.358" lon="2.49738">
        <ele>661.74609375</ele>
        <time>2021-01-26T11:52:16Z</time>
      </trkpt>
      <trkpt lat="43.35782" lon="2.49782">
        <ele>663.25</ele>
        <time>2021-01-26T11:52:43Z</time>
      </trkpt>
      <trkpt lat="43.35772" lon="2.49818">
        <ele>661.55859375</ele>
        <time>2021-01-26T11:53:08Z</time>
      </trkpt>
      <trkpt lat="43.35761" lon="2.49857">
        <ele>658.375</ele>
        <time>2021-01-26T11:53:22Z</time>
      </trkpt>
      <trkpt lat="43.35749" lon="2.49896">
        <ele>654.2890625</ele>
        <time>2021-01-26T11:53:37Z</time>
      </trkpt>
      <trkpt lat="43.35739" lon="2.4994">
        <ele>650.34375</ele>
        <time>2021-01-26T11:53:50Z</time>
      </trkpt>
      <trkpt lat="43.35729" lon="2.49982">
        <ele>645.70703125</ele>
        <time>2021-01-26T11:54:02Z</time>
      </trkpt>
      <trkpt lat="43.35716" lon="2.50022">
        <ele>643.03515625</ele>
        <time>2021-01-26T11:54:14Z</time>
      </trkpt>
      <trkpt lat="43.35701" lon="2.50062">
        <ele>644.125</ele>
        <time>2021-01-26T11:54:28Z</time>
      </trkpt>
      <trkpt lat="43.35684" lon="2.50108">
        <ele>645.609375</ele>
        <time>2021-01-26T11:54:46Z</time>
      </trkpt>
      <trkpt lat="43.35671" lon="2.50166">
        <ele>647.4609375</ele>
        <time>2021-01-26T11:55:11Z</time>
      </trkpt>
      <trkpt lat="43.35643" lon="2.50207">
        <ele>647.78125</ele>
        <time>2021-01-26T11:55:31Z</time>
      </trkpt>
      <trkpt lat="43.35609" lon="2.50239">
        <ele>648.09375</ele>
        <time>2021-01-26T11:55:51Z</time>
      </trkpt>
      <trkpt lat="43.35572" lon="2.50276">
        <ele>646.57421875</ele>
        <time>2021-01-26T11:56:11Z</time>
      </trkpt>
      <trkpt lat="43.35532" lon="2.50302">
        <ele>644.73828125</ele>
        <time>2021-01-26T11:56:29Z</time>
      </trkpt>
      <trkpt lat="43.35501" lon="2.50334">
        <ele>644.22265625</ele>
        <time>2021-01-26T11:56:47Z</time>
      </trkpt>
      <trkpt lat="43.35463" lon="2.50361">
        <ele>643.6484375</ele>
        <time>2021-01-26T11:57:07Z</time>
      </trkpt>
      <trkpt lat="43.35429" lon="2.50387">
        <ele>641.79296875</ele>
        <time>2021-01-26T11:57:22Z</time>
      </trkpt>
      <trkpt lat="43.35397" lon="2.5041">
        <ele>640.19140625</ele>
        <time>2021-01-26T11:57:36Z</time>
      </trkpt>
      <trkpt lat="43.35361" lon="2.50419">
        <ele>638.8203125</ele>
        <time>2021-01-26T11:57:51Z</time>
      </trkpt>
      <trkpt lat="43.35326" lon="2.50433">
        <ele>636.359375</ele>
        <time>2021-01-26T11:58:06Z</time>
      </trkpt>
      <trkpt lat="43.35294" lon="2.50446">
        <ele>632.33203125</ele>
        <time>2021-01-26T11:58:23Z</time>
      </trkpt>
      <trkpt lat="43.35251" lon="2.50452">
        <ele>626.27734375</ele>
        <time>2021-01-26T11:58:41Z</time>
      </trkpt>
      <trkpt lat="43.35217" lon="2.50467">
        <ele>621.06640625</ele>
        <time>2021-01-26T11:58:54Z</time>
      </trkpt>
      <trkpt lat="43.35175" lon="2.50484">
        <ele>613.76171875</ele>
        <time>2021-01-26T11:59:10Z</time>
      </trkpt>
      <trkpt lat="43.35144" lon="2.50517">
        <ele>608.44921875</ele>
        <time>2021-01-26T11:59:27Z</time>
      </trkpt>
      <trkpt lat="43.35108" lon="2.50547">
        <ele>602.0234375</ele>
        <time>2021-01-26T11:59:40Z</time>
      </trkpt>
      <trkpt lat="43.35084" lon="2.50578">
        <ele>599.07421875</ele>
        <time>2021-01-26T11:59:54Z</time>
      </trkpt>
      <trkpt lat="43.35064" lon="2.5062">
        <ele>596.37890625</ele>
        <time>2021-01-26T12:00:07Z</time>
      </trkpt>
      <trkpt lat="43.35048" lon="2.50657">
        <ele>593.52734375</ele>
        <time>2021-01-26T12:00:19Z</time>
      </trkpt>
      <trkpt lat="43.35033" lon="2.50697">
        <ele>590.83984375</ele>
        <time>2021-01-26T12:00:31Z</time>
      </trkpt>
      <trkpt lat="43.35016" lon="2.50739">
        <ele>585.94921875</ele>
        <time>2021-01-26T12:00:45Z</time>
      </trkpt>
      <trkpt lat="43.35004" lon="2.5078">
        <ele>580.8125</ele>
        <time>2021-01-26T12:00:59Z</time>
      </trkpt>
      <trkpt lat="43.34982" lon="2.50826">
        <ele>574.98828125</ele>
        <time>2021-01-26T12:01:14Z</time>
      </trkpt>
      <trkpt lat="43.34955" lon="2.50856">
        <ele>571.15234375</ele>
        <time>2021-01-26T12:01:27Z</time>
      </trkpt>
      <trkpt lat="43.34929" lon="2.50892">
        <ele>564.96484375</ele>
        <time>2021-01-26T12:01:41Z</time>
      </trkpt>
      <trkpt lat="43.34912" lon="2.5093">
        <ele>559.61328125</ele>
        <time>2021-01-26T12:01:54Z</time>
      </trkpt>
      <trkpt lat="43.34888" lon="2.50981">
        <ele>553.96484375</ele>
        <time>2021-01-26T12:02:11Z</time>
      </trkpt>
      <trkpt lat="43.3485" lon="2.51012">
        <ele>548.78515625</ele>
        <time>2021-01-26T12:02:27Z</time>
      </trkpt>
      <trkpt lat="43.34829" lon="2.51014">
        <ele>546.078125</ele>
        <time>2021-01-26T12:02:39Z</time>
      </trkpt>
      <trkpt lat="43.34793" lon="2.51031">
        <ele>541.80078125</ele>
        <time>2021-01-26T12:03:00Z</time>
      </trkpt>
      <trkpt lat="43.34769" lon="2.51044">
        <ele>539.83203125</ele>
        <time>2021-01-26T12:03:49Z</time>
      </trkpt>
      <trkpt lat="43.34751" lon="2.5107">
        <ele>540.140625</ele>
        <time>2021-01-26T12:04:26Z</time>
      </trkpt>
      <trkpt lat="43.34725" lon="2.51116">
        <ele>538.94140625</ele>
        <time>2021-01-26T12:05:14Z</time>
      </trkpt>
      <trkpt lat="43.34703" lon="2.51146">
        <ele>537.171875</ele>
        <time>2021-01-26T12:05:53Z</time>
      </trkpt>
      <trkpt lat="43.34674" lon="2.5118">
        <ele>537.2734375</ele>
        <time>2021-01-26T12:06:10Z</time>
      </trkpt>
      <trkpt lat="43.34642" lon="2.51225">
        <ele>535.17578125</ele>
        <time>2021-01-26T12:06:28Z</time>
      </trkpt>
      <trkpt lat="43.3461" lon="2.51275">
        <ele>534.58203125</ele>
        <time>2021-01-26T12:06:47Z</time>
      </trkpt>
      <trkpt lat="43.34582" lon="2.51313">
        <ele>533.12890625</ele>
        <time>2021-01-26T12:07:02Z</time>
      </trkpt>
      <trkpt lat="43.34553" lon="2.51355">
        <ele>532.2890625</ele>
        <time>2021-01-26T12:07:18Z</time>
      </trkpt>
      <trkpt lat="43.34537" lon="2.51398">
        <ele>530.58984375</ele>
        <time>2021-01-26T12:07:32Z</time>
      </trkpt>
      <trkpt lat="43.34519" lon="2.51456">
        <ele>527.0703125</ele>
        <time>2021-01-26T12:07:45Z</time>
      </trkpt>
      <trkpt lat="43.34507" lon="2.51496">
        <ele>522.74609375</ele>
        <time>2021-01-26T12:07:59Z</time>
      </trkpt>
      <trkpt lat="43.34486" lon="2.51555">
        <ele>517.2109375</ele>
        <time>2021-01-26T12:08:15Z</time>
      </trkpt>
      <trkpt lat="43.34456" lon="2.51584">
        <ele>515.48046875</ele>
        <time>2021-01-26T12:08:30Z</time>
      </trkpt>
      <trkpt lat="43.34426" lon="2.51604">
        <ele>511.265625</ele>
        <time>2021-01-26T12:08:42Z</time>
      </trkpt>
      <trkpt lat="43.34394" lon="2.51568">
        <ele>508.3515625</ele>
        <time>2021-01-26T12:09:06Z</time>
      </trkpt>
      <trkpt lat="43.34372" lon="2.51538">
        <ele>506.6171875</ele>
        <time>2021-01-26T12:09:18Z</time>
      </trkpt>
      <trkpt lat="43.34356" lon="2.51497">
        <ele>505.8203125</ele>
        <time>2021-01-26T12:09:31Z</time>
      </trkpt>
      <trkpt lat="43.34339" lon="2.51456">
        <ele>503.734375</ele>
        <time>2021-01-26T12:09:43Z</time>
      </trkpt>
      <trkpt lat="43.34314" lon="2.51418">
        <ele>499.7578125</ele>
        <time>2021-01-26T12:09:57Z</time>
      </trkpt>
      <trkpt lat="43.34297" lon="2.51442">
        <ele>495.0625</ele>
        <time>2021-01-26T12:10:10Z</time>
      </trkpt>
      <trkpt lat="43.34291" lon="2.51481">
        <ele>492.41015625</ele>
        <time>2021-01-26T12:10:23Z</time>
      </trkpt>
      <trkpt lat="43.34288" lon="2.51538">
        <ele>488.81640625</ele>
        <time>2021-01-26T12:10:53Z</time>
      </trkpt>
      <trkpt lat="43.34305" lon="2.51615">
        <ele>487.21875</ele>
        <time>2021-01-26T12:11:23Z</time>
      </trkpt>
      <trkpt lat="43.34329" lon="2.51705">
        <ele>486.16796875</ele>
        <time>2021-01-26T12:11:54Z</time>
      </trkpt>
      <trkpt lat="43.34352" lon="2.5177">
        <ele>481.85546875</ele>
        <time>2021-01-26T12:12:28Z</time>
      </trkpt>
      <trkpt lat="43.3437" lon="2.5177">
        <ele>484.78515625</ele>
        <time>2021-01-26T12:12:59Z</time>
      </trkpt>
      <trkpt lat="43.34431" lon="2.51767">
        <ele>491.515625</ele>
        <time>2021-01-26T12:13:32Z</time>
      </trkpt>
      <trkpt lat="43.34468" lon="2.51804">
        <ele>478.8203125</ele>
        <time>2021-01-26T12:13:55Z</time>
      </trkpt>
      <trkpt lat="43.34506" lon="2.51833">
        <ele>468.45703125</ele>
        <time>2021-01-26T12:14:18Z</time>
      </trkpt>
      <trkpt lat="43.34538" lon="2.51858">
        <ele>456.84375</ele>
        <time>2021-01-26T12:14:55Z</time>
      </trkpt>
      <trkpt lat="43.34569" lon="2.51806">
        <ele>461.0703125</ele>
        <time>2021-01-26T12:15:20Z</time>
      </trkpt>
      <trkpt lat="43.34597" lon="2.51751">
        <ele>464.359375</ele>
        <time>2021-01-26T12:15:51Z</time>
      </trkpt>
      <trkpt lat="43.34684" lon="2.51658">
        <ele>447.80078125</ele>
        <time>2021-01-26T12:16:47Z</time>
      </trkpt>
      <trkpt lat="43.3473" lon="2.51672">
        <ele>436.375</ele>
        <time>2021-01-26T12:17:21Z</time>
      </trkpt>
      <trkpt lat="43.34746" lon="2.51722">
        <ele>420.7734375</ele>
        <time>2021-01-26T12:17:49Z</time>
      </trkpt>
      <trkpt lat="43.34756" lon="2.5178">
        <ele>402.9765625</ele>
        <time>2021-01-26T12:18:20Z</time>
      </trkpt>
      <trkpt lat="43.3477" lon="2.51847">
        <ele>380.9921875</ele>
        <time>2021-01-26T12:19:00Z</time>
      </trkpt>
      <trkpt lat="43.34769" lon="2.51872">
        <ele>374.26953125</ele>
        <time>2021-01-26T12:19:41Z</time>
      </trkpt>
      <trkpt lat="43.34778" lon="2.51918">
        <ele>358.88671875</ele>
        <time>2021-01-26T12:20:20Z</time>
      </trkpt>
      <trkpt lat="43.34777" lon="2.51952">
        <ele>348.53125</ele>
        <time>2021-01-26T12:21:01Z</time>
      </trkpt>
      <trkpt lat="43.34791" lon="2.51995">
        <ele>331.66796875</ele>
        <time>2021-01-26T12:21:34Z</time>
      </trkpt>
      <trkpt lat="43.34804" lon="2.52035">
        <ele>314.86328125</ele>
        <time>2021-01-26T12:22:15Z</time>
      </trkpt>
      <trkpt lat="43.34809" lon="2.52074">
        <ele>300.27734375</ele>
        <time>2021-01-26T12:22:52Z</time>
      </trkpt>
      <trkpt lat="43.34808" lon="2.52115">
        <ele>288.96484375</ele>
        <time>2021-01-26T12:23:44Z</time>
      </trkpt>
      <trkpt lat="43.34834" lon="2.52166">
        <ele>277.3125</ele>
        <time>2021-01-26T12:24:35Z</time>
      </trkpt>
      <trkpt lat="43.34794" lon="2.52203">
        <ele>276.0703125</ele>
        <time>2021-01-26T12:26:39Z</time>
      </trkpt>
      <trkpt lat="43.34763" lon="2.52261">
        <ele>269.68359375</ele>
        <time>2021-01-26T12:27:04Z</time>
      </trkpt>
      <trkpt lat="43.34747" lon="2.5231">
        <ele>266.52734375</ele>
        <time>2021-01-26T12:27:26Z</time>
      </trkpt>
      <trkpt lat="43.34704" lon="2.52362">
        <ele>256.44921875</ele>
        <time>2021-01-26T12:27:59Z</time>
      </trkpt>
      <trkpt lat="43.34657" lon="2.52408">
        <ele>256.87890625</ele>
        <time>2021-01-26T12:28:34Z</time>
      </trkpt>
      <trkpt lat="43.34617" lon="2.52442">
        <ele>261.390625</ele>
        <time>2021-01-26T12:29:06Z</time>
      </trkpt>
      <trkpt lat="43.34637" lon="2.52449">
        <ele>263.703125</ele>
        <time>2021-01-26T12:29:40Z</time>
      </trkpt>
      <trkpt lat="43.34672" lon="2.52431">
        <ele>257.546875</ele>
        <time>2021-01-26T12:30:08Z</time>
      </trkpt>
      <trkpt lat="43.34612" lon="2.52477">
        <ele>273.8359375</ele>
        <time>2021-01-26T12:31:25Z</time>
      </trkpt>
      <trkpt lat="43.34587" lon="2.52483">
        <ele>275.4921875</ele>
        <time>2021-01-26T12:31:42Z</time>
      </trkpt>
      <trkpt lat="43.34554" lon="2.52491">
        <ele>277.125</ele>
        <time>2021-01-26T12:32:07Z</time>
      </trkpt>
      <trkpt lat="43.34502" lon="2.5252">
        <ele>284.44921875</ele>
        <time>2021-01-26T12:32:54Z</time>
      </trkpt>
      <trkpt lat="43.34446" lon="2.52531">
        <ele>282.09375</ele>
        <time>2021-01-26T12:33:45Z</time>
      </trkpt>
      <trkpt lat="43.34424" lon="2.52554">
        <ele>285.95703125</ele>
        <time>2021-01-26T12:34:21Z</time>
      </trkpt>
      <trkpt lat="43.34389" lon="2.52622">
        <ele>300.27734375</ele>
        <time>2021-01-26T12:35:14Z</time>
      </trkpt>
      <trkpt lat="43.34355" lon="2.52705">
        <ele>319.4765625</ele>
        <time>2021-01-26T12:35:57Z</time>
      </trkpt>
      <trkpt lat="43.34272" lon="2.52743">
        <ele>317.70703125</ele>
        <time>2021-01-26T12:36:42Z</time>
      </trkpt>
      <trkpt lat="43.34196" lon="2.52769">
        <ele>320.3125</ele>
        <time>2021-01-26T12:37:26Z</time>
      </trkpt>
      <trkpt lat="43.34116" lon="2.5278">
        <ele>327.4140625</ele>
        <time>2021-01-26T12:38:11Z</time>
      </trkpt>
      <trkpt lat="43.34065" lon="2.52771">
        <ele>326.28515625</ele>
        <time>2021-01-26T12:38:44Z</time>
      </trkpt>
      <trkpt lat="43.3403" lon="2.52723">
        <ele>311.2109375</ele>
        <time>2021-01-26T12:39:24Z</time>
      </trkpt>
      <trkpt lat="43.33975" lon="2.52791">
        <ele>328.3359375</ele>
        <time>2021-01-26T12:40:07Z</time>
      </trkpt>
      <trkpt lat="43.33913" lon="2.52808">
        <ele>322.2890625</ele>
        <time>2021-01-26T12:40:39Z</time>
      </trkpt>
      <trkpt lat="43.33897" lon="2.52807">
        <ele>318.58203125</ele>
        <time>2021-01-26T12:40:47Z</time>
      </trkpt>
      <trkpt lat="43.33849" lon="2.52811">
        <ele>311.21484375</ele>
        <time>2021-01-26T12:41:18Z</time>
      </trkpt>
      <trkpt lat="43.33806" lon="2.5286">
        <ele>322.7265625</ele>
        <time>2021-01-26T12:41:54Z</time>
      </trkpt>
      <trkpt lat="43.33735" lon="2.52844">
        <ele>314.9921875</ele>
        <time>2021-01-26T12:42:35Z</time>
      </trkpt>
      <trkpt lat="43.3367" lon="2.52833">
        <ele>309.7109375</ele>
        <time>2021-01-26T12:43:18Z</time>
      </trkpt>
      <trkpt lat="43.33603" lon="2.52874">
        <ele>310.3359375</ele>
        <time>2021-01-26T12:43:51Z</time>
      </trkpt>
      <trkpt lat="43.33556" lon="2.5286">
        <ele>303.46484375</ele>
        <time>2021-01-26T12:44:11Z</time>
      </trkpt>
      <trkpt lat="43.33497" lon="2.5286">
        <ele>296.83203125</ele>
        <time>2021-01-26T12:44:47Z</time>
      </trkpt>
      <trkpt lat="43.33455" lon="2.52797">
        <ele>285.42578125</ele>
        <time>2021-01-26T12:45:10Z</time>
      </trkpt>
      <trkpt lat="43.33433" lon="2.52768">
        <ele>281.53515625</ele>
        <time>2021-01-26T12:45:27Z</time>
      </trkpt>
      <trkpt lat="43.33424" lon="2.52731">
        <ele>273.09375</ele>
        <time>2021-01-26T12:45:44Z</time>
      </trkpt>
      <trkpt lat="43.33421" lon="2.52683">
        <ele>261.82421875</ele>
        <time>2021-01-26T12:46:29Z</time>
      </trkpt>
      <trkpt lat="43.33396" lon="2.52694">
        <ele>268.1328125</ele>
        <time>2021-01-26T12:46:50Z</time>
      </trkpt>
      <trkpt lat="43.33369" lon="2.52681">
        <ele>270.609375</ele>
        <time>2021-01-26T12:47:18Z</time>
      </trkpt>
      <trkpt lat="43.33353" lon="2.52651">
        <ele>265.4375</ele>
        <time>2021-01-26T12:47:35Z</time>
      </trkpt>
      <trkpt lat="43.33326" lon="2.52627">
        <ele>263.0859375</ele>
        <time>2021-01-26T12:47:50Z</time>
      </trkpt>
      <trkpt lat="43.33304" lon="2.52591">
        <ele>259.6328125</ele>
        <time>2021-01-26T12:48:10Z</time>
      </trkpt>
      <trkpt lat="43.33269" lon="2.52564">
        <ele>256.65234375</ele>
        <time>2021-01-26T12:48:30Z</time>
      </trkpt>
      <trkpt lat="43.33237" lon="2.52566">
        <ele>256.125</ele>
        <time>2021-01-26T12:48:45Z</time>
      </trkpt>
      <trkpt lat="43.33221" lon="2.52568">
        <ele>255.96484375</ele>
        <time>2021-01-26T12:48:55Z</time>
      </trkpt>
      <trkpt lat="43.33206" lon="2.52576">
        <ele>256.95703125</ele>
        <time>2021-01-26T12:49:03Z</time>
      </trkpt>
      <trkpt lat="43.33177" lon="2.52605">
        <ele>257.2421875</ele>
        <time>2021-01-26T12:49:17Z</time>
      </trkpt>
      <trkpt lat="43.33154" lon="2.52644">
        <ele>255.82421875</ele>
        <time>2021-01-26T12:49:34Z</time>
      </trkpt>
      <trkpt lat="43.33127" lon="2.5268">
        <ele>254.02734375</ele>
        <time>2021-01-26T12:49:57Z</time>
      </trkpt>
      <trkpt lat="43.33098" lon="2.52717">
        <ele>248.640625</ele>
        <time>2021-01-26T12:50:18Z</time>
      </trkpt>
      <trkpt lat="43.33071" lon="2.5269">
        <ele>242.7421875</ele>
        <time>2021-01-26T12:50:46Z</time>
      </trkpt>
      <trkpt lat="43.33036" lon="2.52661">
        <ele>233.1484375</ele>
        <time>2021-01-26T12:51:01Z</time>
      </trkpt>
      <trkpt lat="43.33" lon="2.52651">
        <ele>225.1171875</ele>
        <time>2021-01-26T12:51:14Z</time>
      </trkpt>
      <trkpt lat="43.32967" lon="2.52652">
        <ele>219.22265625</ele>
        <time>2021-01-26T12:51:26Z</time>
      </trkpt>
      <trkpt lat="43.32936" lon="2.52671">
        <ele>215.734375</ele>
        <time>2021-01-26T12:51:38Z</time>
      </trkpt>
      <trkpt lat="43.32905" lon="2.52693">
        <ele>211.390625</ele>
        <time>2021-01-26T12:51:50Z</time>
      </trkpt>
      <trkpt lat="43.32873" lon="2.52711">
        <ele>206.28125</ele>
        <time>2021-01-26T12:52:02Z</time>
      </trkpt>
      <trkpt lat="43.32839" lon="2.52706">
        <ele>202.46484375</ele>
        <time>2021-01-26T12:52:15Z</time>
      </trkpt>
      <trkpt lat="43.32809" lon="2.52708">
        <ele>200.3828125</ele>
        <time>2021-01-26T12:52:29Z</time>
      </trkpt>
      <trkpt lat="43.32788" lon="2.52698">
        <ele>198.47265625</ele>
        <time>2021-01-26T12:52:46Z</time>
      </trkpt>
      <trkpt lat="43.32778" lon="2.52663">
        <ele>195.92578125</ele>
        <time>2021-01-26T12:53:01Z</time>
      </trkpt>
      <trkpt lat="43.32766" lon="2.52624">
        <ele>192.48828125</ele>
        <time>2021-01-26T12:53:17Z</time>
      </trkpt>
      <trkpt lat="43.32746" lon="2.52566">
        <ele>189.8984375</ele>
        <time>2021-01-26T12:53:31Z</time>
      </trkpt>
      <trkpt lat="43.32736" lon="2.52526">
        <ele>189.52734375</ele>
        <time>2021-01-26T12:53:49Z</time>
      </trkpt>
      <trkpt lat="43.32719" lon="2.52548">
        <ele>188.92578125</ele>
        <time>2021-01-26T12:54:04Z</time>
      </trkpt>
      <trkpt lat="43.32684" lon="2.52561">
        <ele>187.8046875</ele>
        <time>2021-01-26T12:54:22Z</time>
      </trkpt>
      <trkpt lat="43.32673" lon="2.52558">
        <ele>187.59375</ele>
        <time>2021-01-26T12:54:36Z</time>
      </trkpt>
    </trkseg>
  </trk>
</gpx>